createdAt,value
2018-08-22T00:00:27.382Z,10.85
2018-08-22T00:02:54.438Z,9.98
2018-08-22T00:05:21.482Z,12.30
2018-08-22T00:07:48.530Z,9.98
2018-08-22T00:10:15.584Z,12.00
2018-08-22T00:12:42.629Z,10.50
2018-08-22T00:15:09.694Z,10.25
2018-08-22T00:17:36.730Z,10.23
2018-08-22T00:20:03.749Z,10.10
2018-08-22T00:22:30.860Z,10.20
2018-08-22T00:24:57.875Z,10.63
2018-08-22T00:27:25.026Z,11.60
2018-08-22T00:29:52.069Z,11.32
2018-08-22T00:32:19.121Z,10.85
2018-08-22T00:35:04.585Z,10.02
2018-08-22T00:37:50.968Z,10.38
2018-08-22T00:40:29.519Z,11.12
2018-08-22T00:42:57.592Z,11.57
2018-08-22T00:45:24.640Z,12.02
2018-08-22T00:47:51.693Z,12.13
2018-08-22T00:50:18.743Z,11.07
2018-08-22T00:52:46.473Z,10.75
2018-08-22T00:55:14.069Z,12.30
2018-08-22T00:57:41.157Z,10.23
2018-08-22T01:00:08.161Z,10.98
2018-08-22T01:02:35.217Z,10.85
2018-08-22T01:05:02.265Z,12.05
2018-08-22T01:07:29.312Z,11.12
2018-08-22T01:09:56.355Z,10.65
2018-08-22T01:12:23.408Z,12.37
2018-08-22T01:14:51.901Z,11.63
2018-08-22T01:17:19.452Z,11.73
2018-08-22T01:19:48.444Z,11.73
2018-08-22T01:22:15.900Z,14.32
2018-08-22T01:24:43.055Z,12.20
2018-08-22T01:27:10.277Z,11.98
2018-08-22T01:29:37.355Z,12.37
2018-08-22T01:32:04.503Z,12.43
2018-08-22T01:34:31.557Z,12.40
2018-08-22T01:36:58.807Z,13.00
2018-08-22T01:39:25.863Z,15.80
2018-08-22T01:41:52.904Z,12.65
2018-08-22T01:44:19.952Z,14.63
2018-08-22T01:46:47.005Z,11.63
2018-08-22T01:49:14.158Z,13.30
2018-08-22T01:51:42.601Z,12.48
2018-08-22T01:54:11.325Z,13.35
2018-08-22T01:56:38.376Z,13.60
2018-08-22T01:59:05.418Z,14.30
2018-08-22T02:01:32.466Z,13.98
2018-08-22T02:03:59.521Z,13.50
2018-08-22T02:06:26.568Z,13.65
2018-08-22T02:08:53.611Z,12.93
2018-08-22T02:11:20.666Z,13.75
2018-08-22T02:13:47.709Z,13.73
2018-08-22T02:16:14.759Z,13.07
2018-08-22T02:18:41.813Z,13.18
2018-08-22T02:21:08.855Z,13.55
2018-08-22T02:23:35.905Z,13.52
2018-08-22T02:26:02.959Z,13.82
2018-08-22T02:28:30.002Z,13.00
2018-08-22T02:30:57.050Z,13.15
2018-08-22T02:33:24.105Z,15.98
2018-08-22T02:35:51.147Z,15.07
2018-08-22T02:38:18.269Z,13.40
2018-08-22T02:40:45.350Z,13.25
2018-08-22T02:43:12.497Z,14.15
2018-08-22T02:45:39.514Z,13.15
2018-08-22T02:48:06.702Z,13.20
2018-08-22T02:50:33.747Z,13.77
2018-08-22T02:53:00.795Z,13.62
2018-08-22T02:55:29.558Z,16.00
2018-08-22T02:57:56.636Z,13.43
2018-08-22T03:00:23.710Z,13.23
2018-08-22T03:02:50.705Z,13.85
2018-08-22T03:05:17.779Z,14.15
2018-08-22T03:07:44.834Z,14.27
2018-08-22T03:10:11.877Z,15.05
2018-08-22T03:12:38.895Z,13.93
2018-08-22T03:15:05.979Z,14.52
2018-08-22T03:17:33.024Z,14.18
2018-08-22T03:20:00.686Z,14.35
2018-08-22T03:22:27.738Z,14.48
2018-08-22T03:24:54.890Z,12.90
2018-08-22T03:27:21.933Z,15.00
2018-08-22T03:29:48.982Z,16.12
2018-08-22T03:32:16.039Z,13.57
2018-08-22T03:34:43.080Z,14.40
2018-08-22T03:37:10.231Z,14.00
2018-08-22T03:39:37.279Z,13.70
2018-08-22T03:42:04.333Z,13.20
2018-08-22T03:44:31.377Z,13.30
2018-08-22T03:46:59.556Z,14.15
2018-08-22T03:49:26.600Z,13.75
2018-08-22T03:51:53.649Z,14.35
2018-08-22T03:54:22.240Z,15.60
2018-08-22T03:56:49.282Z,13.57
2018-08-22T03:59:16.332Z,13.52
2018-08-22T04:01:44.617Z,12.75
2018-08-22T04:04:11.663Z,14.63
2018-08-22T04:06:40.346Z,14.35
2018-08-22T04:09:08.419Z,14.93
2018-08-22T04:11:37.004Z,12.90
2018-08-22T04:14:05.592Z,13.82
2018-08-22T04:16:32.634Z,13.52
2018-08-22T04:18:59.682Z,13.18
2018-08-22T04:21:27.972Z,13.13
2018-08-22T04:23:54.983Z,12.43
2018-08-22T04:26:22.057Z,13.02
2018-08-22T04:28:49.419Z,12.40
2018-08-22T04:31:16.462Z,12.15
2018-08-22T04:33:43.510Z,12.75
2018-08-22T04:36:11.182Z,12.98
2018-08-22T04:38:38.223Z,12.77
2018-08-22T04:41:05.272Z,12.80
2018-08-22T04:43:32.325Z,13.23
2018-08-22T04:45:59.983Z,12.85
2018-08-22T04:48:27.032Z,11.82
2018-08-22T04:51:13.577Z,13.18
2018-08-22T04:53:40.796Z,12.07
2018-08-22T04:56:07.839Z,11.55
2018-08-22T04:58:34.892Z,12.13
2018-08-22T05:01:01.937Z,12.05
2018-08-22T05:03:29.907Z,12.25
2018-08-22T05:05:56.967Z,11.00
2018-08-22T05:08:23.978Z,12.73
2018-08-22T05:10:51.052Z,13.13
2018-08-22T05:13:18.106Z,13.32
2018-08-22T05:15:45.567Z,10.65
2018-08-22T05:18:12.608Z,11.90
2018-08-22T05:20:39.656Z,11.40
2018-08-22T05:23:06.806Z,10.82
2018-08-22T05:25:33.861Z,11.73
2018-08-22T05:28:00.904Z,10.55
2018-08-22T05:30:27.953Z,11.27
2018-08-22T05:32:55.822Z,11.35
2018-08-22T05:35:22.870Z,11.30
2018-08-22T05:37:49.922Z,11.75
2018-08-22T05:40:16.967Z,11.15
2018-08-22T05:42:44.323Z,11.40
2018-08-22T05:45:11.377Z,10.98
2018-08-22T05:47:38.420Z,11.65
2018-08-22T05:50:05.469Z,11.55
2018-08-22T05:52:32.522Z,11.77
2018-08-22T05:55:00.180Z,11.98
2018-08-22T05:57:27.281Z,10.48
2018-08-22T05:59:55.178Z,11.00
2018-08-22T06:02:23.377Z,11.23
2018-08-22T06:04:51.446Z,11.93
2018-08-22T06:07:19.423Z,10.98
2018-08-22T06:10:08.991Z,11.93
2018-08-22T06:12:56.859Z,11.68
2018-08-22T06:15:24.902Z,15.57
2018-08-22T06:17:51.958Z,10.65
2018-08-22T06:20:19.000Z,11.00
2018-08-22T06:22:46.047Z,11.60
2018-08-22T06:25:13.102Z,9.95
2018-08-22T06:27:40.148Z,18.17
2018-08-22T06:30:07.194Z,16.35
2018-08-22T06:32:34.249Z,12.80
2018-08-22T06:35:01.464Z,13.32
2018-08-22T06:37:28.551Z,12.48
2018-08-22T06:39:55.966Z,10.88
2018-08-22T06:42:23.774Z,14.43
2018-08-22T06:44:50.820Z,12.43
2018-08-22T06:47:17.968Z,11.32
2018-08-22T06:49:45.018Z,11.73
2018-08-22T06:52:12.071Z,10.77
2018-08-22T06:54:39.118Z,11.18
2018-08-22T06:57:06.189Z,11.77
2018-08-22T06:59:33.318Z,18.33
2018-08-22T07:02:00.468Z,14.05
2018-08-22T07:04:27.524Z,12.30
2018-08-22T07:06:55.694Z,10.38
2018-08-22T07:09:22.743Z,12.98
2018-08-22T07:11:49.785Z,10.50
2018-08-22T07:14:16.937Z,13.48
2018-08-22T07:16:43.950Z,12.20
2018-08-22T07:19:11.040Z,9.63
2018-08-22T07:21:38.082Z,12.50
2018-08-22T07:24:05.234Z,13.13
2018-08-22T07:26:32.282Z,11.50
2018-08-22T07:28:59.336Z,11.68
2018-08-22T07:31:26.358Z,10.05
2018-08-22T07:33:53.428Z,13.02
2018-08-22T07:36:20.482Z,10.88
2018-08-22T07:38:48.207Z,8.90
2018-08-22T07:41:15.291Z,9.10
2018-08-22T07:43:42.747Z,8.98
2018-08-22T07:46:09.797Z,8.77
2018-08-22T07:49:01.891Z,12.85
2018-08-22T07:51:29.194Z,8.93
2018-08-22T07:53:56.235Z,8.38
2018-08-22T07:56:23.887Z,16.08
2018-08-22T07:58:50.954Z,9.07
2018-08-22T08:01:18.203Z,9.27
2018-08-22T08:03:45.256Z,9.02
2018-08-22T08:06:12.406Z,9.43
2018-08-22T08:08:39.505Z,11.77
2018-08-22T08:11:06.573Z,11.12
2018-08-22T08:13:33.566Z,12.00
2018-08-22T08:16:00.597Z,8.45
2018-08-22T08:18:27.718Z,10.35
2018-08-22T08:20:54.697Z,8.75
2018-08-22T08:23:22.253Z,13.05
2018-08-22T08:25:49.307Z,16.65
2018-08-22T08:28:16.351Z,9.48
2018-08-22T08:30:43.442Z,11.02
2018-08-22T08:33:10.515Z,12.65
2018-08-22T08:35:42.723Z,15.70
2018-08-22T08:38:09.870Z,12.02
2018-08-22T08:40:37.147Z,11.43
2018-08-22T08:43:04.143Z,9.15
2018-08-22T08:45:31.219Z,11.90
2018-08-22T08:47:58.984Z,8.82
2018-08-22T08:50:26.038Z,17.95
2018-08-22T08:52:53.189Z,17.02
2018-08-22T08:55:20.235Z,9.55
2018-08-22T08:57:49.028Z,12.35
2018-08-22T09:00:17.100Z,10.63
2018-08-22T09:02:44.141Z,8.05
2018-08-22T09:05:11.296Z,13.85
2018-08-22T09:07:38.344Z,13.93
2018-08-22T09:10:05.396Z,8.32
2018-08-22T09:12:32.442Z,11.43
2018-08-22T09:14:59.591Z,9.13
2018-08-22T09:17:26.615Z,8.18
2018-08-22T09:19:53.694Z,11.12
2018-08-22T09:22:20.777Z,7.53
2018-08-22T09:24:48.020Z,10.38
2018-08-22T09:27:15.041Z,11.10
2018-08-22T09:29:42.155Z,8.70
2018-08-22T09:32:09.143Z,9.50
2018-08-22T09:34:36.184Z,9.32
2018-08-22T09:37:05.047Z,7.80
2018-08-22T09:39:32.181Z,10.57
2018-08-22T09:41:59.280Z,11.68
2018-08-22T09:44:26.324Z,9.98
2018-08-22T09:46:53.374Z,12.70
2018-08-22T09:49:20.526Z,8.00
2018-08-22T09:51:47.678Z,8.70
2018-08-22T09:54:14.727Z,11.73
2018-08-22T09:56:41.773Z,9.27
2018-08-22T09:59:09.505Z,7.97
2018-08-22T10:01:36.693Z,8.85
2018-08-22T10:04:03.735Z,9.57
2018-08-22T10:06:32.561Z,10.80
2018-08-22T10:08:59.881Z,10.30
2018-08-22T10:11:27.032Z,10.02
2018-08-22T10:13:54.088Z,7.80
2018-08-22T10:16:21.128Z,9.27
2018-08-22T10:18:48.177Z,8.07
2018-08-22T10:21:15.231Z,12.25
2018-08-22T10:23:42.276Z,13.88
2018-08-22T10:26:09.322Z,7.95
2018-08-22T10:28:36.376Z,8.52
2018-08-22T10:31:03.528Z,7.37
2018-08-22T10:33:30.571Z,11.43
2018-08-22T10:35:57.722Z,7.95
2018-08-22T10:38:25.838Z,8.23
2018-08-22T10:40:55.202Z,10.15
2018-08-22T10:43:22.246Z,7.53
2018-08-22T10:45:50.523Z,9.57
2018-08-22T10:48:17.576Z,7.22
2018-08-22T10:50:44.678Z,7.95
2018-08-22T10:53:11.879Z,8.02
2018-08-22T10:55:39.036Z,7.87
2018-08-22T10:58:06.180Z,10.40
2018-08-22T11:00:33.332Z,8.80
2018-08-22T11:03:00.377Z,11.98
2018-08-22T11:05:27.422Z,9.57
2018-08-22T11:07:54.476Z,7.40
2018-08-22T11:10:21.519Z,7.30
2018-08-22T11:12:48.568Z,7.32
2018-08-22T11:15:15.929Z,9.13
2018-08-22T11:17:42.971Z,9.30
2018-08-22T11:20:10.019Z,7.05
2018-08-22T11:22:43.217Z,7.65
2018-08-22T11:25:16.097Z,6.90
2018-08-22T11:27:49.289Z,9.23
2018-08-22T11:30:23.409Z,8.07
2018-08-22T11:32:56.493Z,11.90
2018-08-22T11:35:24.469Z,7.03
2018-08-22T11:37:51.716Z,7.07
2018-08-22T11:40:18.770Z,6.40
2018-08-22T11:42:46.634Z,6.95
2018-08-22T11:45:13.889Z,6.78
2018-08-22T11:47:40.903Z,6.68
2018-08-22T11:50:08.085Z,6.87
2018-08-22T11:52:35.137Z,6.80
2018-08-22T11:55:02.182Z,7.40
2018-08-22T11:57:29.229Z,6.82
2018-08-22T11:59:56.381Z,7.95
2018-08-22T12:02:23.435Z,9.18
2018-08-22T12:04:50.477Z,7.75
2018-08-22T12:07:21.421Z,7.55
2018-08-22T12:09:49.387Z,7.25
2018-08-22T12:12:17.322Z,7.30
2018-08-22T12:14:45.227Z,7.40
2018-08-22T12:17:12.274Z,7.03
2018-08-22T12:19:44.549Z,6.65
2018-08-22T12:22:11.898Z,7.50
2018-08-22T12:24:38.947Z,8.65
2018-08-22T12:27:06.000Z,7.55
2018-08-22T12:29:33.043Z,7.95
2018-08-22T12:32:00.193Z,8.20
2018-08-22T12:34:27.241Z,8.25
2018-08-22T12:36:54.295Z,6.78
2018-08-22T12:39:21.339Z,6.55
2018-08-22T12:41:48.385Z,6.68
2018-08-22T12:44:15.445Z,6.72
2018-08-22T12:46:42.454Z,6.32
2018-08-22T12:49:09.537Z,6.75
2018-08-22T12:51:36.586Z,6.37
2018-08-22T12:54:04.551Z,9.85
2018-08-22T12:56:48.899Z,6.75
2018-08-22T12:59:17.257Z,6.60
2018-08-22T13:01:47.404Z,6.90
2018-08-22T13:04:19.264Z,7.82
2018-08-22T13:06:47.338Z,10.52
2018-08-22T13:09:15.213Z,6.75
2018-08-22T13:11:42.253Z,6.82
2018-08-22T13:14:09.299Z,9.30
2018-08-22T13:16:36.353Z,6.62
2018-08-22T13:19:03.397Z,9.40
2018-08-22T13:21:31.467Z,6.90
2018-08-22T13:23:58.520Z,7.20
2018-08-22T13:26:25.568Z,6.95
2018-08-22T13:28:52.921Z,9.52
2018-08-22T13:31:20.070Z,6.62
2018-08-22T13:33:47.329Z,7.03
2018-08-22T13:36:14.964Z,6.68
2018-08-22T13:38:41.936Z,6.43
2018-08-22T13:41:09.089Z,9.20
2018-08-22T13:43:36.194Z,7.18
2018-08-22T13:46:03.280Z,6.75
2018-08-22T13:48:30.329Z,7.32
2018-08-22T13:50:57.435Z,6.55
2018-08-22T13:53:24.512Z,7.93
2018-08-22T13:55:51.492Z,7.97
2018-08-22T13:58:18.526Z,7.72
2018-08-22T14:00:45.983Z,6.75
2018-08-22T14:03:13.027Z,10.15
2018-08-22T14:05:40.180Z,12.82
2018-08-22T14:08:07.329Z,7.47
2018-08-22T14:10:34.378Z,7.00
2018-08-22T14:13:01.527Z,7.15
2018-08-22T14:15:28.677Z,13.23
2018-08-22T14:17:55.829Z,10.05
2018-08-22T14:20:22.882Z,7.50
2018-08-22T14:22:50.032Z,6.37
2018-08-22T14:25:17.287Z,7.40
2018-08-22T14:27:44.296Z,6.90
2018-08-22T14:30:11.377Z,10.20
2018-08-22T14:32:38.525Z,7.78
2018-08-22T14:35:05.988Z,6.60
2018-08-22T14:37:33.033Z,8.57
2018-08-22T14:40:01.008Z,7.50
2018-08-22T14:42:28.055Z,8.95
2018-08-22T14:44:55.154Z,7.15
2018-08-22T14:47:23.893Z,7.20
2018-08-22T14:49:50.896Z,6.87
2018-08-22T14:52:17.992Z,8.30
2018-08-22T14:54:45.031Z,6.93
2018-08-22T14:57:13.001Z,7.72
2018-08-22T14:59:40.055Z,8.80
2018-08-22T15:02:07.302Z,9.82
2018-08-22T15:04:34.455Z,7.28
2018-08-22T15:07:01.507Z,7.28
2018-08-22T15:09:28.657Z,7.85
2018-08-22T15:11:55.806Z,6.95
2018-08-22T15:14:22.847Z,11.27
2018-08-22T15:16:49.897Z,11.15
2018-08-22T15:19:17.069Z,7.57
2018-08-22T15:21:44.220Z,10.60
2018-08-22T15:24:11.346Z,10.20
2018-08-22T15:26:38.558Z,10.30
2018-08-22T15:29:05.752Z,12.20
2018-08-22T15:31:32.799Z,14.55
2018-08-22T15:34:01.711Z,13.45
2018-08-22T15:36:28.789Z,8.88
2018-08-22T15:38:55.791Z,8.38
2018-08-22T15:41:22.884Z,12.65
2018-08-22T15:43:51.086Z,7.75
2018-08-22T15:46:18.469Z,12.98
2018-08-22T15:48:45.739Z,8.60
2018-08-22T15:51:31.646Z,12.35
2018-08-22T15:53:58.761Z,10.43
2018-08-22T15:56:25.810Z,12.25
2018-08-22T15:58:52.878Z,11.45
2018-08-22T16:01:19.908Z,9.98
2018-08-22T16:03:46.955Z,11.10
2018-08-22T16:06:14.009Z,17.30
2018-08-22T16:08:41.055Z,15.75
2018-08-22T16:11:08.098Z,12.48
2018-08-22T16:13:35.151Z,14.15
2018-08-22T16:16:02.196Z,9.70
2018-08-22T16:18:30.526Z,8.18
2018-08-22T16:20:57.725Z,16.62
2018-08-22T16:23:24.876Z,19.95
2018-08-22T16:25:51.923Z,39.03
2018-08-22T16:28:19.002Z,26.45
2018-08-22T16:30:56.771Z,21.73
2018-08-22T16:33:14.093Z,14.85
2018-08-22T16:35:41.141Z,31.67
2018-08-22T16:38:08.194Z,17.75
2018-08-22T16:40:35.237Z,12.40
2018-08-22T16:43:02.388Z,12.27
2018-08-22T16:45:29.659Z,14.07
2018-08-22T16:47:57.412Z,11.73
2018-08-22T16:50:24.521Z,16.67
2018-08-22T16:52:51.658Z,21.05
2018-08-22T16:55:18.756Z,22.83
2018-08-22T16:57:46.117Z,19.02
2018-08-22T17:00:13.167Z,11.75
2018-08-22T17:02:40.623Z,19.52
2018-08-22T17:05:07.667Z,14.98
2018-08-22T17:07:52.765Z,10.00
2018-08-22T17:10:21.536Z,11.82
2018-08-22T17:12:48.536Z,12.88
2018-08-22T17:15:15.674Z,11.02
2018-08-22T17:17:42.670Z,15.10
2018-08-22T17:20:09.724Z,11.95
2018-08-22T17:22:36.768Z,13.57
2018-08-22T17:25:03.923Z,14.18
2018-08-22T17:27:30.967Z,11.98
2018-08-22T17:29:58.117Z,11.70
2018-08-22T17:32:25.171Z,13.95
2018-08-22T17:34:53.309Z,13.05
2018-08-22T17:37:20.491Z,9.35
2018-08-22T17:39:47.545Z,10.23
2018-08-22T17:42:14.697Z,8.52
2018-08-22T17:44:41.740Z,8.13
2018-08-22T17:47:08.788Z,10.20
2018-08-22T17:49:36.040Z,8.32
2018-08-22T17:52:03.192Z,9.55
2018-08-22T17:54:30.451Z,11.45
2018-08-22T17:56:57.497Z,9.23
2018-08-22T17:59:24.505Z,11.55
2018-08-22T18:01:51.961Z,9.43
2018-08-22T18:04:19.013Z,15.68
2018-08-22T18:06:46.205Z,17.08
2018-08-22T18:09:13.453Z,13.70
2018-08-22T18:11:42.043Z,10.95
2018-08-22T18:14:09.086Z,13.02
2018-08-22T18:16:38.117Z,12.93
2018-08-22T18:19:11.355Z,13.30
2018-08-22T18:21:39.246Z,14.93
2018-08-22T18:24:06.494Z,9.18
2018-08-22T18:26:34.567Z,19.87
2018-08-22T18:29:01.621Z,13.88
2018-08-22T18:31:34.724Z,19.52
2018-08-22T18:34:07.881Z,21.50
2018-08-22T18:36:34.954Z,12.37
2018-08-22T18:39:02.100Z,14.00
2018-08-22T18:41:34.276Z,12.98
2018-08-22T18:44:04.289Z,12.98
2018-08-22T18:47:09.764Z,11.15
2018-08-22T18:52:24.134Z,11.82
2018-08-22T18:54:52.718Z,11.60
2018-08-22T18:57:21.174Z,11.57
2018-08-22T18:59:50.395Z,9.57
2018-08-22T19:02:19.780Z,13.27
2018-08-22T19:04:50.102Z,11.98
2018-08-22T19:07:18.916Z,11.50
2018-08-22T19:10:01.511Z,13.25
2018-08-22T19:12:33.981Z,10.95
2018-08-22T19:15:02.752Z,11.73
2018-08-22T19:17:31.599Z,9.18
2018-08-22T19:19:59.861Z,15.38
2018-08-22T19:22:28.233Z,10.88
2018-08-22T19:25:00.240Z,10.88
2018-08-22T19:27:29.073Z,14.32
2018-08-22T19:30:01.571Z,17.33
2018-08-22T19:32:30.119Z,11.60
2018-08-22T19:35:01.034Z,10.40
2018-08-22T19:37:29.754Z,9.88
2018-08-22T19:40:05.205Z,11.30
2018-08-22T19:42:33.919Z,11.20
2018-08-22T19:45:26.541Z,10.20
2018-08-22T19:47:54.945Z,11.05
2018-08-22T19:53:03.644Z,10.80
2018-08-22T19:55:38.887Z,15.18
2018-08-22T20:07:00.901Z,10.27
2018-08-22T20:23:55.085Z,16.20
2018-08-22T20:29:17.645Z,12.18
2018-08-22T20:34:31.402Z,13.18
2018-08-22T20:36:59.475Z,13.57
2018-08-22T20:39:27.734Z,13.32
2018-08-22T20:41:56.439Z,12.50
2018-08-22T20:44:23.464Z,16.30
2018-08-22T20:46:51.460Z,14.87
2018-08-22T20:49:18.507Z,17.85
2018-08-22T20:51:46.685Z,19.60
2018-08-22T20:54:14.314Z,22.80
2018-08-22T20:56:41.401Z,20.48
2018-08-22T20:59:09.777Z,14.52
2018-08-22T21:01:37.543Z,15.65
2018-08-22T21:04:05.785Z,15.15
2018-08-22T21:06:32.836Z,20.67
2018-08-22T21:09:00.016Z,18.33
2018-08-22T21:11:27.269Z,23.87
2018-08-22T21:14:09.940Z,20.27
2018-08-22T21:16:37.136Z,25.20
2018-08-22T21:19:05.517Z,23.85
2018-08-22T21:21:33.559Z,17.00
2018-08-22T21:24:00.642Z,14.52
2018-08-22T21:26:27.974Z,23.70
2018-08-22T21:28:55.232Z,22.60
2018-08-22T21:31:22.282Z,20.05
2018-08-22T21:33:49.447Z,22.05
2018-08-22T21:36:18.755Z,19.60
2018-08-22T21:38:46.209Z,17.60
2018-08-22T21:41:13.253Z,17.15
2018-08-22T21:43:42.325Z,16.20
2018-08-22T21:46:09.398Z,25.08
2018-08-22T21:48:36.413Z,19.23
2018-08-22T21:51:03.395Z,16.60
2018-08-22T21:53:30.449Z,18.95
2018-08-22T21:55:57.492Z,25.23
2018-08-22T21:58:24.664Z,19.27
2018-08-22T22:00:51.795Z,26.60
2018-08-22T22:03:22.014Z,17.40
2018-08-22T22:05:49.290Z,21.90
2018-08-22T22:08:16.317Z,19.83
2018-08-22T22:10:44.497Z,20.92
2018-08-22T22:13:11.849Z,23.00
2018-08-22T22:15:39.109Z,28.73
2018-08-22T22:18:06.969Z,19.52
2018-08-22T22:20:34.024Z,22.48
2018-08-22T22:23:01.067Z,21.45
2018-08-22T22:25:28.085Z,24.77
2018-08-22T22:27:55.170Z,29.20
2018-08-22T22:30:22.213Z,16.60
2018-08-22T22:32:49.262Z,17.40
2018-08-22T22:35:16.413Z,17.05
2018-08-22T22:37:44.081Z,17.73
2018-08-22T22:40:11.124Z,16.15
2018-08-22T22:42:38.172Z,18.45
2018-08-22T22:45:05.226Z,18.10
2018-08-22T22:47:32.378Z,23.60
2018-08-22T22:49:59.529Z,17.35
2018-08-22T22:52:26.572Z,19.90
2018-08-22T22:54:53.621Z,22.45
2018-08-22T22:57:20.675Z,16.33
2018-08-22T22:59:48.027Z,15.45
2018-08-22T23:02:15.074Z,21.50
2018-08-22T23:04:43.050Z,13.57
2018-08-22T23:07:10.224Z,16.58
2018-08-22T23:09:37.351Z,15.27
2018-08-22T23:12:04.394Z,13.82
2018-08-22T23:14:32.467Z,15.20
2018-08-22T23:17:00.233Z,14.30
2018-08-22T23:19:27.281Z,16.92
2018-08-22T23:21:54.336Z,14.23
2018-08-22T23:24:21.379Z,16.92
2018-08-22T23:26:48.427Z,17.87
2018-08-22T23:29:15.481Z,18.05
2018-08-22T23:31:42.524Z,14.85
2018-08-22T23:34:10.495Z,18.08
2018-08-22T23:36:37.646Z,14.32
2018-08-22T23:39:04.765Z,19.60
2018-08-22T23:41:31.850Z,15.10
2018-08-22T23:43:58.868Z,13.15
2018-08-22T23:46:25.942Z,15.10
2018-08-22T23:48:53.093Z,13.68
2018-08-22T23:51:20.147Z,14.55
2018-08-22T23:53:47.192Z,16.52
2018-08-22T23:56:14.245Z,13.48
2018-08-22T23:58:42.214Z,15.52
